sensor_id;sensor_type;location;lat;lon;timestamp;P1;durP1;ratioP1;P2;durP2;ratioP2
5157;SDS011;2598;52.364;9.772;2024-01-11T00:01:21;28.30;;;12.43;;
5157;SDS011;2598;52.364;9.772;2024-01-11T00:03:47;27.50;;;12.47;;
5157;SDS011;2598;52.364;9.772;2024-01-11T00:06:13;32.83;;;12.80;;
5157;SDS011;2598;52.364;9.772;2024-01-11T00:08:39;30.20;;;12.33;;
5157;SDS011;2598;52.364;9.772;2024-01-11T00:11:05;27.87;;;12.23;;
5157;SDS011;2598;52.364;9.772;2024-01-11T00:13:31;31.43;;;11.93;;
5157;SDS011;2598;52.364;9.772;2024-01-11T00:15:57;26.48;;;12.15;;
5157;SDS011;2598;52.364;9.772;2024-01-11T00:18:23;33.93;;;12.70;;
5157;SDS011;2598;52.364;9.772;2024-01-11T00:20:49;27.27;;;12.25;;
5157;SDS011;2598;52.364;9.772;2024-01-11T00:23:16;30.15;;;11.60;;
5157;SDS011;2598;52.364;9.772;2024-01-11T00:25:42;27.52;;;11.23;;
5157;SDS011;2598;52.364;9.772;2024-01-11T00:28:08;25.00;;;10.87;;
5157;SDS011;2598;52.364;9.772;2024-01-11T00:30:34;26.13;;;11.00;;
5157;SDS011;2598;52.364;9.772;2024-01-11T00:32:59;30.00;;;11.80;;
5157;SDS011;2598;52.364;9.772;2024-01-11T00:35:25;26.00;;;10.90;;
5157;SDS011;2598;52.364;9.772;2024-01-11T00:37:51;26.17;;;11.55;;
5157;SDS011;2598;52.364;9.772;2024-01-11T00:40:17;24.00;;;10.33;;
5157;SDS011;2598;52.364;9.772;2024-01-11T00:42:43;23.60;;;10.03;;
5157;SDS011;2598;52.364;9.772;2024-01-11T00:45:09;27.03;;;10.97;;
5157;SDS011;2598;52.364;9.772;2024-01-11T00:47:35;24.07;;;10.60;;
5157;SDS011;2598;52.364;9.772;2024-01-11T00:50:01;29.77;;;11.45;;
5157;SDS011;2598;52.364;9.772;2024-01-11T00:52:27;21.10;;;10.27;;
5157;SDS011;2598;52.364;9.772;2024-01-11T00:54:53;25.63;;;10.20;;
5157;SDS011;2598;52.364;9.772;2024-01-11T00:57:19;24.83;;;10.33;;
5157;SDS011;2598;52.364;9.772;2024-01-11T00:59:45;21.67;;;10.77;;
5157;SDS011;2598;52.364;9.772;2024-01-11T01:02:11;30.77;;;12.97;;
5157;SDS011;2598;52.364;9.772;2024-01-11T01:04:37;33.30;;;11.80;;
5157;SDS011;2598;52.364;9.772;2024-01-11T01:07:04;21.63;;;9.85;;
5157;SDS011;2598;52.364;9.772;2024-01-11T01:09:30;24.20;;;9.90;;
5157;SDS011;2598;52.364;9.772;2024-01-11T01:11:56;28.13;;;11.55;;
5157;SDS011;2598;52.364;9.772;2024-01-11T01:14:22;28.10;;;10.53;;
5157;SDS011;2598;52.364;9.772;2024-01-11T01:16:49;21.85;;;9.25;;
5157;SDS011;2598;52.364;9.772;2024-01-11T01:19:15;23.13;;;10.23;;
5157;SDS011;2598;52.364;9.772;2024-01-11T01:21:40;27.37;;;10.60;;
5157;SDS011;2598;52.364;9.772;2024-01-11T01:24:06;22.83;;;9.97;;
5157;SDS011;2598;52.364;9.772;2024-01-11T01:26:32;29.07;;;8.97;;
5157;SDS011;2598;52.364;9.772;2024-01-11T01:28:58;22.77;;;9.57;;
5157;SDS011;2598;52.364;9.772;2024-01-11T01:31:24;28.17;;;11.37;;
5157;SDS011;2598;52.364;9.772;2024-01-11T01:33:50;27.17;;;9.13;;
5157;SDS011;2598;52.364;9.772;2024-01-11T01:36:16;19.90;;;8.77;;
5157;SDS011;2598;52.364;9.772;2024-01-11T01:38:42;20.92;;;8.80;;
5157;SDS011;2598;52.364;9.772;2024-01-11T01:41:08;22.17;;;9.80;;
5157;SDS011;2598;52.364;9.772;2024-01-11T01:43:34;28.25;;;10.38;;
5157;SDS011;2598;52.364;9.772;2024-01-11T01:46:00;22.80;;;9.67;;
5157;SDS011;2598;52.364;9.772;2024-01-11T01:48:26;18.73;;;8.73;;
5157;SDS011;2598;52.364;9.772;2024-01-11T01:50:53;24.92;;;9.70;;
5157;SDS011;2598;52.364;9.772;2024-01-11T01:53:19;23.80;;;11.15;;
5157;SDS011;2598;52.364;9.772;2024-01-11T01:55:47;25.80;;;9.43;;
5157;SDS011;2598;52.364;9.772;2024-01-11T01:58:13;25.35;;;11.38;;
5157;SDS011;2598;52.364;9.772;2024-01-11T02:00:39;27.05;;;11.45;;
5157;SDS011;2598;52.364;9.772;2024-01-11T02:03:06;20.45;;;9.02;;
5157;SDS011;2598;52.364;9.772;2024-01-11T02:05:33;26.88;;;10.77;;
5157;SDS011;2598;52.364;9.772;2024-01-11T02:07:59;24.90;;;10.80;;
5157;SDS011;2598;52.364;9.772;2024-01-11T02:10:26;25.70;;;9.32;;
5157;SDS011;2598;52.364;9.772;2024-01-11T02:12:52;21.23;;;10.18;;
5157;SDS011;2598;52.364;9.772;2024-01-11T02:15:18;22.15;;;9.40;;
5157;SDS011;2598;52.364;9.772;2024-01-11T02:17:44;23.48;;;9.60;;
5157;SDS011;2598;52.364;9.772;2024-01-11T02:20:10;18.70;;;8.90;;
5157;SDS011;2598;52.364;9.772;2024-01-11T02:22:38;25.05;;;9.45;;
5157;SDS011;2598;52.364;9.772;2024-01-11T02:25:06;25.27;;;10.65;;
5157;SDS011;2598;52.364;9.772;2024-01-11T02:27:44;27.25;;;9.82;;
5157;SDS011;2598;52.364;9.772;2024-01-11T02:30:10;22.85;;;8.82;;
5157;SDS011;2598;52.364;9.772;2024-01-11T02:32:36;19.67;;;9.65;;
5157;SDS011;2598;52.364;9.772;2024-01-11T02:35:02;19.93;;;7.90;;
5157;SDS011;2598;52.364;9.772;2024-01-11T02:37:29;22.63;;;9.63;;
5157;SDS011;2598;52.364;9.772;2024-01-11T02:39:55;21.58;;;9.27;;
5157;SDS011;2598;52.364;9.772;2024-01-11T02:42:21;23.92;;;10.30;;
5157;SDS011;2598;52.364;9.772;2024-01-11T02:44:47;25.52;;;9.82;;
5157;SDS011;2598;52.364;9.772;2024-01-11T02:47:13;21.58;;;8.57;;
5157;SDS011;2598;52.364;9.772;2024-01-11T02:49:39;21.97;;;9.40;;
5157;SDS011;2598;52.364;9.772;2024-01-11T02:52:05;23.98;;;9.20;;
5157;SDS011;2598;52.364;9.772;2024-01-11T02:54:31;19.77;;;9.47;;
5157;SDS011;2598;52.364;9.772;2024-01-11T02:56:57;25.60;;;10.30;;
5157;SDS011;2598;52.364;9.772;2024-01-11T02:59:23;21.58;;;9.25;;
5157;SDS011;2598;52.364;9.772;2024-01-11T03:01:50;21.92;;;9.93;;
5157;SDS011;2598;52.364;9.772;2024-01-11T03:04:16;21.53;;;9.30;;
5157;SDS011;2598;52.364;9.772;2024-01-11T03:06:42;20.95;;;8.93;;
5157;SDS011;2598;52.364;9.772;2024-01-11T03:09:08;24.70;;;10.25;;
5157;SDS011;2598;52.364;9.772;2024-01-11T03:11:34;25.80;;;10.27;;
5157;SDS011;2598;52.364;9.772;2024-01-11T03:14:00;20.40;;;8.73;;
5157;SDS011;2598;52.364;9.772;2024-01-11T03:16:27;19.77;;;9.90;;
5157;SDS011;2598;52.364;9.772;2024-01-11T03:18:53;22.50;;;9.40;;
5157;SDS011;2598;52.364;9.772;2024-01-11T03:21:19;21.57;;;9.83;;
5157;SDS011;2598;52.364;9.772;2024-01-11T03:23:45;25.17;;;9.40;;
5157;SDS011;2598;52.364;9.772;2024-01-11T03:26:16;22.23;;;9.40;;
5157;SDS011;2598;52.364;9.772;2024-01-11T03:28:42;19.42;;;9.75;;
5157;SDS011;2598;52.364;9.772;2024-01-11T03:31:08;17.05;;;8.90;;
5157;SDS011;2598;52.364;9.772;2024-01-11T03:33:34;22.63;;;9.90;;
5157;SDS011;2598;52.364;9.772;2024-01-11T03:36:05;19.80;;;9.57;;
5157;SDS011;2598;52.364;9.772;2024-01-11T03:38:32;21.15;;;9.85;;
5157;SDS011;2598;52.364;9.772;2024-01-11T03:40:58;24.73;;;10.03;;
5157;SDS011;2598;52.364;9.772;2024-01-11T03:43:24;23.77;;;9.60;;
5157;SDS011;2598;52.364;9.772;2024-01-11T03:45:50;23.77;;;10.27;;
5157;SDS011;2598;52.364;9.772;2024-01-11T03:48:16;23.87;;;10.07;;
5157;SDS011;2598;52.364;9.772;2024-01-11T03:50:41;26.60;;;10.53;;
5157;SDS011;2598;52.364;9.772;2024-01-11T03:53:07;23.03;;;10.50;;
5157;SDS011;2598;52.364;9.772;2024-01-11T03:55:34;22.45;;;9.85;;
5157;SDS011;2598;52.364;9.772;2024-01-11T03:57:59;24.43;;;10.93;;
5157;SDS011;2598;52.364;9.772;2024-01-11T04:00:27;19.98;;;9.65;;
5157;SDS011;2598;52.364;9.772;2024-01-11T04:02:53;27.10;;;10.17;;
5157;SDS011;2598;52.364;9.772;2024-01-11T04:05:19;23.93;;;9.53;;
5157;SDS011;2598;52.364;9.772;2024-01-11T04:07:45;23.17;;;9.50;;
5157;SDS011;2598;52.364;9.772;2024-01-11T04:10:11;24.63;;;9.65;;
5157;SDS011;2598;52.364;9.772;2024-01-11T04:12:37;26.50;;;9.90;;
5157;SDS011;2598;52.364;9.772;2024-01-11T04:15:03;25.73;;;10.68;;
5157;SDS011;2598;52.364;9.772;2024-01-11T04:17:29;24.90;;;9.73;;
5157;SDS011;2598;52.364;9.772;2024-01-11T04:19:55;19.58;;;9.43;;
5157;SDS011;2598;52.364;9.772;2024-01-11T04:22:21;22.67;;;9.30;;
5157;SDS011;2598;52.364;9.772;2024-01-11T04:24:47;18.77;;;9.10;;
5157;SDS011;2598;52.364;9.772;2024-01-11T04:27:13;22.40;;;9.40;;
5157;SDS011;2598;52.364;9.772;2024-01-11T04:29:39;22.77;;;10.03;;
5157;SDS011;2598;52.364;9.772;2024-01-11T04:32:04;21.83;;;9.70;;
5157;SDS011;2598;52.364;9.772;2024-01-11T04:34:30;25.10;;;10.40;;
5157;SDS011;2598;52.364;9.772;2024-01-11T04:36:56;22.42;;;9.05;;
5157;SDS011;2598;52.364;9.772;2024-01-11T04:39:22;29.03;;;11.03;;
5157;SDS011;2598;52.364;9.772;2024-01-11T04:41:48;26.83;;;8.87;;
5157;SDS011;2598;52.364;9.772;2024-01-11T04:44:14;23.03;;;9.40;;
5157;SDS011;2598;52.364;9.772;2024-01-11T04:46:40;29.90;;;11.03;;
5157;SDS011;2598;52.364;9.772;2024-01-11T04:49:06;22.30;;;10.30;;
5157;SDS011;2598;52.364;9.772;2024-01-11T04:51:32;23.83;;;9.97;;
5157;SDS011;2598;52.364;9.772;2024-01-11T04:53:58;20.17;;;9.48;;
5157;SDS011;2598;52.364;9.772;2024-01-11T04:56:25;21.80;;;9.48;;
5157;SDS011;2598;52.364;9.772;2024-01-11T04:58:51;23.05;;;10.38;;
5157;SDS011;2598;52.364;9.772;2024-01-11T05:01:17;22.30;;;9.18;;
5157;SDS011;2598;52.364;9.772;2024-01-11T05:03:44;25.48;;;9.52;;
5157;SDS011;2598;52.364;9.772;2024-01-11T05:06:20;29.90;;;9.75;;
5157;SDS011;2598;52.364;9.772;2024-01-11T05:08:46;24.77;;;9.73;;
5157;SDS011;2598;52.364;9.772;2024-01-11T05:11:19;23.23;;;9.25;;
5157;SDS011;2598;52.364;9.772;2024-01-11T05:13:45;28.80;;;10.35;;
5157;SDS011;2598;52.364;9.772;2024-01-11T05:18:47;20.35;;;9.05;;
5157;SDS011;2598;52.364;9.772;2024-01-11T05:21:13;16.10;;;7.47;;
5157;SDS011;2598;52.364;9.772;2024-01-11T05:23:40;23.40;;;9.20;;
5157;SDS011;2598;52.364;9.772;2024-01-11T05:26:07;22.08;;;9.35;;
5157;SDS011;2598;52.364;9.772;2024-01-11T05:28:33;21.55;;;9.38;;
5157;SDS011;2598;52.364;9.772;2024-01-11T05:30:59;21.57;;;8.70;;
5157;SDS011;2598;52.364;9.772;2024-01-11T05:33:25;22.25;;;8.32;;
5157;SDS011;2598;52.364;9.772;2024-01-11T05:35:51;23.23;;;9.10;;
5157;SDS011;2598;52.364;9.772;2024-01-11T05:38:18;20.83;;;8.13;;
5157;SDS011;2598;52.364;9.772;2024-01-11T05:40:44;25.17;;;9.03;;
5157;SDS011;2598;52.364;9.772;2024-01-11T05:43:10;21.67;;;9.38;;
5157;SDS011;2598;52.364;9.772;2024-01-11T05:45:36;24.23;;;9.03;;
5157;SDS011;2598;52.364;9.772;2024-01-11T05:48:02;26.27;;;10.52;;
5157;SDS011;2598;52.364;9.772;2024-01-11T05:50:30;23.50;;;9.05;;
5157;SDS011;2598;52.364;9.772;2024-01-11T05:52:56;22.52;;;10.35;;
5157;SDS011;2598;52.364;9.772;2024-01-11T05:55:22;26.10;;;10.00;;
5157;SDS011;2598;52.364;9.772;2024-01-11T05:57:48;22.27;;;9.43;;
5157;SDS011;2598;52.364;9.772;2024-01-11T06:00:14;26.60;;;9.55;;
5157;SDS011;2598;52.364;9.772;2024-01-11T06:02:41;21.73;;;9.32;;
5157;SDS011;2598;52.364;9.772;2024-01-11T06:05:07;24.52;;;9.52;;
5157;SDS011;2598;52.364;9.772;2024-01-11T06:07:34;22.20;;;10.88;;
5157;SDS011;2598;52.364;9.772;2024-01-11T06:10:00;23.90;;;11.13;;
5157;SDS011;2598;52.364;9.772;2024-01-11T06:12:27;22.30;;;10.38;;
5157;SDS011;2598;52.364;9.772;2024-01-11T06:14:53;29.50;;;11.37;;
5157;SDS011;2598;52.364;9.772;2024-01-11T06:17:19;27.33;;;11.63;;
5157;SDS011;2598;52.364;9.772;2024-01-11T06:19:45;25.57;;;10.53;;
5157;SDS011;2598;52.364;9.772;2024-01-11T06:22:11;25.47;;;10.03;;
5157;SDS011;2598;52.364;9.772;2024-01-11T06:24:37;26.10;;;10.10;;
5157;SDS011;2598;52.364;9.772;2024-01-11T06:27:03;23.17;;;9.80;;
5157;SDS011;2598;52.364;9.772;2024-01-11T06:29:29;31.00;;;9.88;;
5157;SDS011;2598;52.364;9.772;2024-01-11T06:31:55;24.53;;;9.73;;
5157;SDS011;2598;52.364;9.772;2024-01-11T06:34:21;23.55;;;9.10;;
5157;SDS011;2598;52.364;9.772;2024-01-11T06:36:47;21.23;;;9.90;;
5157;SDS011;2598;52.364;9.772;2024-01-11T06:39:13;21.93;;;9.30;;
5157;SDS011;2598;52.364;9.772;2024-01-11T06:41:39;24.77;;;11.27;;
5157;SDS011;2598;52.364;9.772;2024-01-11T06:44:05;25.92;;;10.93;;
5157;SDS011;2598;52.364;9.772;2024-01-11T06:46:31;22.30;;;10.07;;
5157;SDS011;2598;52.364;9.772;2024-01-11T06:48:57;23.48;;;10.15;;
5157;SDS011;2598;52.364;9.772;2024-01-11T06:51:23;26.88;;;10.75;;
5157;SDS011;2598;52.364;9.772;2024-01-11T06:53:49;23.85;;;9.98;;
5157;SDS011;2598;52.364;9.772;2024-01-11T06:56:15;19.50;;;9.03;;
5157;SDS011;2598;52.364;9.772;2024-01-11T06:58:42;26.17;;;11.57;;
5157;SDS011;2598;52.364;9.772;2024-01-11T07:01:08;28.15;;;12.45;;
5157;SDS011;2598;52.364;9.772;2024-01-11T07:03:34;31.95;;;11.32;;
5157;SDS011;2598;52.364;9.772;2024-01-11T07:06:00;30.55;;;13.45;;
5157;SDS011;2598;52.364;9.772;2024-01-11T07:08:27;30.65;;;13.00;;
5157;SDS011;2598;52.364;9.772;2024-01-11T07:10:53;39.97;;;15.53;;
5157;SDS011;2598;52.364;9.772;2024-01-11T07:13:19;36.30;;;14.13;;
5157;SDS011;2598;52.364;9.772;2024-01-11T07:15:45;33.22;;;13.60;;
5157;SDS011;2598;52.364;9.772;2024-01-11T07:18:13;28.85;;;11.88;;
5157;SDS011;2598;52.364;9.772;2024-01-11T07:20:39;26.58;;;10.07;;
5157;SDS011;2598;52.364;9.772;2024-01-11T07:23:05;28.83;;;12.30;;
5157;SDS011;2598;52.364;9.772;2024-01-11T07:25:31;25.23;;;9.80;;
5157;SDS011;2598;52.364;9.772;2024-01-11T07:27:57;18.77;;;8.80;;
5157;SDS011;2598;52.364;9.772;2024-01-11T07:30:23;25.95;;;10.55;;
5157;SDS011;2598;52.364;9.772;2024-01-11T07:32:49;27.15;;;10.90;;
5157;SDS011;2598;52.364;9.772;2024-01-11T07:35:16;24.67;;;10.23;;
5157;SDS011;2598;52.364;9.772;2024-01-11T07:37:42;21.42;;;10.25;;
5157;SDS011;2598;52.364;9.772;2024-01-11T07:40:08;26.15;;;11.95;;
5157;SDS011;2598;52.364;9.772;2024-01-11T07:42:38;32.78;;;11.50;;
5157;SDS011;2598;52.364;9.772;2024-01-11T07:45:05;25.15;;;10.95;;
5157;SDS011;2598;52.364;9.772;2024-01-11T07:47:31;29.30;;;10.52;;
5157;SDS011;2598;52.364;9.772;2024-01-11T07:49:57;25.90;;;10.18;;
5157;SDS011;2598;52.364;9.772;2024-01-11T07:52:23;33.30;;;15.00;;
5157;SDS011;2598;52.364;9.772;2024-01-11T07:54:49;25.20;;;10.00;;
5157;SDS011;2598;52.364;9.772;2024-01-11T07:57:15;24.73;;;10.87;;
5157;SDS011;2598;52.364;9.772;2024-01-11T07:59:41;27.80;;;10.80;;
5157;SDS011;2598;52.364;9.772;2024-01-11T08:02:07;26.40;;;9.98;;
5157;SDS011;2598;52.364;9.772;2024-01-11T08:04:33;27.40;;;10.53;;
5157;SDS011;2598;52.364;9.772;2024-01-11T08:06:59;25.20;;;10.67;;
5157;SDS011;2598;52.364;9.772;2024-01-11T08:09:26;24.05;;;10.40;;
5157;SDS011;2598;52.364;9.772;2024-01-11T08:11:52;29.10;;;11.03;;
5157;SDS011;2598;52.364;9.772;2024-01-11T08:14:19;23.50;;;10.75;;
5157;SDS011;2598;52.364;9.772;2024-01-11T08:16:45;21.58;;;9.70;;
5157;SDS011;2598;52.364;9.772;2024-01-11T08:19:11;21.48;;;10.50;;
5157;SDS011;2598;52.364;9.772;2024-01-11T08:21:39;27.52;;;9.20;;
5157;SDS011;2598;52.364;9.772;2024-01-11T08:24:06;25.27;;;9.98;;
5157;SDS011;2598;52.364;9.772;2024-01-11T08:26:32;27.58;;;11.10;;
5157;SDS011;2598;52.364;9.772;2024-01-11T08:28:58;32.33;;;12.00;;
5157;SDS011;2598;52.364;9.772;2024-01-11T08:31:24;26.75;;;11.15;;
5157;SDS011;2598;52.364;9.772;2024-01-11T08:33:50;24.30;;;10.52;;
5157;SDS011;2598;52.364;9.772;2024-01-11T08:36:16;23.10;;;10.40;;
5157;SDS011;2598;52.364;9.772;2024-01-11T08:38:42;25.43;;;10.90;;
5157;SDS011;2598;52.364;9.772;2024-01-11T08:41:08;32.07;;;12.30;;
5157;SDS011;2598;52.364;9.772;2024-01-11T08:43:34;27.10;;;11.23;;
5157;SDS011;2598;52.364;9.772;2024-01-11T08:46:00;27.60;;;11.13;;
5157;SDS011;2598;52.364;9.772;2024-01-11T08:48:27;27.35;;;11.13;;
5157;SDS011;2598;52.364;9.772;2024-01-11T08:50:53;25.48;;;10.75;;
5157;SDS011;2598;52.364;9.772;2024-01-11T08:53:19;21.13;;;9.90;;
5157;SDS011;2598;52.364;9.772;2024-01-11T08:55:46;26.85;;;12.63;;
5157;SDS011;2598;52.364;9.772;2024-01-11T08:58:12;24.83;;;9.83;;
5157;SDS011;2598;52.364;9.772;2024-01-11T09:00:38;25.77;;;10.93;;
5157;SDS011;2598;52.364;9.772;2024-01-11T09:03:04;26.83;;;10.85;;
5157;SDS011;2598;52.364;9.772;2024-01-11T09:05:30;27.02;;;11.20;;
5157;SDS011;2598;52.364;9.772;2024-01-11T09:07:56;24.38;;;11.30;;
5157;SDS011;2598;52.364;9.772;2024-01-11T09:10:22;26.23;;;10.40;;
5157;SDS011;2598;52.364;9.772;2024-01-11T09:12:48;21.00;;;10.10;;
5157;SDS011;2598;52.364;9.772;2024-01-11T09:15:14;23.53;;;10.77;;
5157;SDS011;2598;52.364;9.772;2024-01-11T09:17:40;23.65;;;11.23;;
5157;SDS011;2598;52.364;9.772;2024-01-11T09:20:06;27.05;;;10.98;;
5157;SDS011;2598;52.364;9.772;2024-01-11T09:22:33;23.67;;;11.07;;
5157;SDS011;2598;52.364;9.772;2024-01-11T09:24:59;22.50;;;9.68;;
5157;SDS011;2598;52.364;9.772;2024-01-11T09:27:25;24.67;;;10.90;;
5157;SDS011;2598;52.364;9.772;2024-01-11T09:29:50;22.40;;;9.50;;
5157;SDS011;2598;52.364;9.772;2024-01-11T09:32:16;23.00;;;9.47;;
5157;SDS011;2598;52.364;9.772;2024-01-11T09:34:42;23.07;;;10.90;;
5157;SDS011;2598;52.364;9.772;2024-01-11T09:37:10;27.35;;;10.98;;
5157;SDS011;2598;52.364;9.772;2024-01-11T09:39:36;21.40;;;9.70;;
5157;SDS011;2598;52.364;9.772;2024-01-11T09:42:08;22.47;;;10.50;;
5157;SDS011;2598;52.364;9.772;2024-01-11T09:44:35;26.98;;;11.15;;
5157;SDS011;2598;52.364;9.772;2024-01-11T09:47:02;29.15;;;11.30;;
5157;SDS011;2598;52.364;9.772;2024-01-11T09:49:30;20.33;;;8.85;;
5157;SDS011;2598;52.364;9.772;2024-01-11T09:51:56;27.40;;;10.80;;
5157;SDS011;2598;52.364;9.772;2024-01-11T09:54:23;27.75;;;10.30;;
5157;SDS011;2598;52.364;9.772;2024-01-11T09:56:50;21.65;;;9.98;;
5157;SDS011;2598;52.364;9.772;2024-01-11T09:59:18;23.60;;;10.35;;
5157;SDS011;2598;52.364;9.772;2024-01-11T10:01:44;23.25;;;10.57;;
5157;SDS011;2598;52.364;9.772;2024-01-11T10:04:10;29.13;;;13.02;;
5157;SDS011;2598;52.364;9.772;2024-01-11T10:06:37;32.50;;;12.60;;
5157;SDS011;2598;52.364;9.772;2024-01-11T10:09:04;27.00;;;10.98;;
5157;SDS011;2598;52.364;9.772;2024-01-11T10:11:30;30.13;;;11.32;;
5157;SDS011;2598;52.364;9.772;2024-01-11T10:13:56;25.23;;;10.30;;
5157;SDS011;2598;52.364;9.772;2024-01-11T10:16:23;32.78;;;11.23;;
5157;SDS011;2598;52.364;9.772;2024-01-11T10:18:49;35.47;;;11.88;;
5157;SDS011;2598;52.364;9.772;2024-01-11T10:21:15;31.85;;;13.20;;
5157;SDS011;2598;52.364;9.772;2024-01-11T10:23:41;31.53;;;12.30;;
5157;SDS011;2598;52.364;9.772;2024-01-11T10:26:07;28.53;;;12.43;;
5157;SDS011;2598;52.364;9.772;2024-01-11T10:28:33;24.42;;;11.02;;
5157;SDS011;2598;52.364;9.772;2024-01-11T10:31:02;28.08;;;11.45;;
5157;SDS011;2598;52.364;9.772;2024-01-11T10:33:29;26.45;;;10.90;;
5157;SDS011;2598;52.364;9.772;2024-01-11T10:35:55;29.13;;;11.40;;
5157;SDS011;2598;52.364;9.772;2024-01-11T10:38:21;26.57;;;11.43;;
5157;SDS011;2598;52.364;9.772;2024-01-11T10:40:48;49.90;;;18.17;;
5157;SDS011;2598;52.364;9.772;2024-01-11T10:43:14;34.13;;;12.03;;
5157;SDS011;2598;52.364;9.772;2024-01-11T10:45:43;29.73;;;10.63;;
5157;SDS011;2598;52.364;9.772;2024-01-11T10:48:13;27.92;;;11.50;;
5157;SDS011;2598;52.364;9.772;2024-01-11T10:50:46;26.63;;;11.63;;
5157;SDS011;2598;52.364;9.772;2024-01-11T10:55:59;29.30;;;11.25;;
5157;SDS011;2598;52.364;9.772;2024-01-11T10:58:25;29.15;;;11.90;;
5157;SDS011;2598;52.364;9.772;2024-01-11T11:00:53;26.40;;;11.35;;
5157;SDS011;2598;52.364;9.772;2024-01-11T11:03:20;25.20;;;9.80;;
5157;SDS011;2598;52.364;9.772;2024-01-11T11:05:49;27.75;;;10.60;;
5157;SDS011;2598;52.364;9.772;2024-01-11T11:08:15;29.55;;;11.15;;
5157;SDS011;2598;52.364;9.772;2024-01-11T11:10:42;32.85;;;15.82;;
5157;SDS011;2598;52.364;9.772;2024-01-11T11:13:08;26.10;;;12.05;;
5157;SDS011;2598;52.364;9.772;2024-01-11T11:15:35;29.10;;;12.52;;
5157;SDS011;2598;52.364;9.772;2024-01-11T11:18:02;29.38;;;10.43;;
5157;SDS011;2598;52.364;9.772;2024-01-11T11:20:30;29.83;;;12.77;;
5157;SDS011;2598;52.364;9.772;2024-01-11T11:23:03;25.65;;;10.10;;
5157;SDS011;2598;52.364;9.772;2024-01-11T11:25:30;25.33;;;10.98;;
5157;SDS011;2598;52.364;9.772;2024-01-11T11:27:57;28.40;;;12.02;;
5157;SDS011;2598;52.364;9.772;2024-01-11T11:30:23;28.40;;;11.10;;
5157;SDS011;2598;52.364;9.772;2024-01-11T11:32:50;23.75;;;10.27;;
5157;SDS011;2598;52.364;9.772;2024-01-11T11:35:16;24.93;;;9.83;;
5157;SDS011;2598;52.364;9.772;2024-01-11T11:37:42;22.35;;;10.60;;
5157;SDS011;2598;52.364;9.772;2024-01-11T11:40:09;26.60;;;11.82;;
5157;SDS011;2598;52.364;9.772;2024-01-11T11:42:39;23.80;;;10.10;;
5157;SDS011;2598;52.364;9.772;2024-01-11T11:45:05;23.83;;;9.85;;
5157;SDS011;2598;52.364;9.772;2024-01-11T11:47:35;28.33;;;10.70;;
5157;SDS011;2598;52.364;9.772;2024-01-11T11:50:05;23.38;;;10.65;;
5157;SDS011;2598;52.364;9.772;2024-01-11T11:52:32;20.88;;;8.50;;
5157;SDS011;2598;52.364;9.772;2024-01-11T11:54:59;24.15;;;9.90;;
5157;SDS011;2598;52.364;9.772;2024-01-11T11:57:26;23.63;;;10.45;;
5157;SDS011;2598;52.364;9.772;2024-01-11T11:59:54;25.45;;;9.23;;
5157;SDS011;2598;52.364;9.772;2024-01-11T12:02:22;29.77;;;10.95;;
5157;SDS011;2598;52.364;9.772;2024-01-11T12:04:48;23.25;;;9.57;;
5157;SDS011;2598;52.364;9.772;2024-01-11T12:07:14;25.40;;;10.83;;
5157;SDS011;2598;52.364;9.772;2024-01-11T12:09:41;27.38;;;10.60;;
5157;SDS011;2598;52.364;9.772;2024-01-11T12:12:07;27.05;;;10.40;;
5157;SDS011;2598;52.364;9.772;2024-01-11T12:14:33;26.63;;;11.18;;
5157;SDS011;2598;52.364;9.772;2024-01-11T12:16:59;22.15;;;9.20;;
5157;SDS011;2598;52.364;9.772;2024-01-11T12:19:25;22.17;;;9.35;;
5157;SDS011;2598;52.364;9.772;2024-01-11T12:21:52;22.77;;;9.15;;
5157;SDS011;2598;52.364;9.772;2024-01-11T12:24:18;25.80;;;10.40;;
5157;SDS011;2598;52.364;9.772;2024-01-11T12:26:46;23.58;;;9.88;;
5157;SDS011;2598;52.364;9.772;2024-01-11T12:29:12;18.27;;;9.30;;
5157;SDS011;2598;52.364;9.772;2024-01-11T12:31:39;24.45;;;9.40;;
5157;SDS011;2598;52.364;9.772;2024-01-11T12:34:05;22.73;;;9.00;;
5157;SDS011;2598;52.364;9.772;2024-01-11T12:36:31;19.88;;;8.32;;
5157;SDS011;2598;52.364;9.772;2024-01-11T12:38:57;22.33;;;9.70;;
5157;SDS011;2598;52.364;9.772;2024-01-11T12:41:23;20.77;;;8.48;;
5157;SDS011;2598;52.364;9.772;2024-01-11T12:43:49;21.98;;;8.05;;
5157;SDS011;2598;52.364;9.772;2024-01-11T12:46:15;19.95;;;9.07;;
5157;SDS011;2598;52.364;9.772;2024-01-11T12:48:42;28.37;;;10.93;;
5157;SDS011;2598;52.364;9.772;2024-01-11T12:51:08;23.60;;;9.18;;
5157;SDS011;2598;52.364;9.772;2024-01-11T12:53:35;23.02;;;8.05;;
5157;SDS011;2598;52.364;9.772;2024-01-11T12:56:02;19.83;;;7.63;;
5157;SDS011;2598;52.364;9.772;2024-01-11T12:58:28;18.92;;;7.47;;
5157;SDS011;2598;52.364;9.772;2024-01-11T13:00:54;17.27;;;7.75;;
5157;SDS011;2598;52.364;9.772;2024-01-11T13:03:22;14.73;;;6.40;;
5157;SDS011;2598;52.364;9.772;2024-01-11T13:05:48;20.17;;;8.77;;
5157;SDS011;2598;52.364;9.772;2024-01-11T13:08:14;18.80;;;7.75;;
5157;SDS011;2598;52.364;9.772;2024-01-11T13:10:40;25.00;;;7.97;;
5157;SDS011;2598;52.364;9.772;2024-01-11T13:13:06;18.47;;;6.70;;
5157;SDS011;2598;52.364;9.772;2024-01-11T13:15:33;16.15;;;7.00;;
5157;SDS011;2598;52.364;9.772;2024-01-11T13:18:02;19.87;;;8.00;;
5157;SDS011;2598;52.364;9.772;2024-01-11T13:20:28;16.25;;;7.47;;
5157;SDS011;2598;52.364;9.772;2024-01-11T13:25:39;15.05;;;6.78;;
5157;SDS011;2598;52.364;9.772;2024-01-11T13:28:05;17.75;;;7.55;;
5157;SDS011;2598;52.364;9.772;2024-01-11T13:30:31;20.00;;;7.87;;
5157;SDS011;2598;52.364;9.772;2024-01-11T13:32:58;23.85;;;7.45;;
5157;SDS011;2598;52.364;9.772;2024-01-11T13:35:24;14.85;;;6.82;;
5157;SDS011;2598;52.364;9.772;2024-01-11T13:37:50;17.05;;;8.05;;
5157;SDS011;2598;52.364;9.772;2024-01-11T13:40:16;18.75;;;8.65;;
5157;SDS011;2598;52.364;9.772;2024-01-11T13:42:42;19.80;;;7.90;;
5157;SDS011;2598;52.364;9.772;2024-01-11T13:45:08;23.42;;;8.10;;
5157;SDS011;2598;52.364;9.772;2024-01-11T13:47:37;20.83;;;8.20;;
5157;SDS011;2598;52.364;9.772;2024-01-11T13:50:03;28.45;;;9.40;;
5157;SDS011;2598;52.364;9.772;2024-01-11T13:52:29;25.20;;;9.90;;
5157;SDS011;2598;52.364;9.772;2024-01-11T13:54:55;20.53;;;9.40;;
5157;SDS011;2598;52.364;9.772;2024-01-11T13:57:21;25.93;;;9.20;;
5157;SDS011;2598;52.364;9.772;2024-01-11T13:59:47;21.47;;;8.70;;
5157;SDS011;2598;52.364;9.772;2024-01-11T14:02:14;22.33;;;10.13;;
5157;SDS011;2598;52.364;9.772;2024-01-11T14:04:40;22.17;;;9.20;;
5157;SDS011;2598;52.364;9.772;2024-01-11T14:07:06;22.30;;;10.17;;
5157;SDS011;2598;52.364;9.772;2024-01-11T14:09:32;21.98;;;9.55;;
5157;SDS011;2598;52.364;9.772;2024-01-11T14:11:58;24.03;;;9.77;;
5157;SDS011;2598;52.364;9.772;2024-01-11T14:14:24;19.50;;;9.93;;
5157;SDS011;2598;52.364;9.772;2024-01-11T14:16:50;23.23;;;9.90;;
5157;SDS011;2598;52.364;9.772;2024-01-11T14:19:16;19.13;;;8.55;;
5157;SDS011;2598;52.364;9.772;2024-01-11T14:21:42;20.60;;;9.35;;
5157;SDS011;2598;52.364;9.772;2024-01-11T14:24:08;21.08;;;9.13;;
5157;SDS011;2598;52.364;9.772;2024-01-11T14:26:34;23.30;;;10.00;;
5157;SDS011;2598;52.364;9.772;2024-01-11T14:29:00;25.50;;;10.82;;
5157;SDS011;2598;52.364;9.772;2024-01-11T14:31:27;19.02;;;9.40;;
5157;SDS011;2598;52.364;9.772;2024-01-11T14:33:53;22.33;;;9.63;;
5157;SDS011;2598;52.364;9.772;2024-01-11T14:36:19;20.88;;;9.63;;
5157;SDS011;2598;52.364;9.772;2024-01-11T14:38:45;27.52;;;10.32;;
5157;SDS011;2598;52.364;9.772;2024-01-11T14:41:11;19.67;;;9.17;;
5157;SDS011;2598;52.364;9.772;2024-01-11T14:43:37;19.53;;;9.47;;
5157;SDS011;2598;52.364;9.772;2024-01-11T14:46:03;21.93;;;10.33;;
5157;SDS011;2598;52.364;9.772;2024-01-11T14:48:30;20.45;;;9.57;;
5157;SDS011;2598;52.364;9.772;2024-01-11T14:50:56;27.20;;;12.52;;
5157;SDS011;2598;52.364;9.772;2024-01-11T14:53:22;20.35;;;11.32;;
5157;SDS011;2598;52.364;9.772;2024-01-11T14:55:49;22.60;;;9.97;;